createdAt,value
2019-03-28T00:01:20.274Z,71.96
2019-03-28T00:03:52.628Z,71.80
2019-03-28T00:06:25.233Z,71.36
2019-03-28T00:08:57.470Z,71.12
2019-03-28T00:11:29.744Z,70.84
2019-03-28T00:14:02.019Z,70.78
2019-03-28T00:16:34.413Z,70.40
2019-03-28T00:19:06.491Z,70.41
2019-03-28T00:21:39.032Z,70.44
2019-03-28T00:24:11.335Z,70.18
2019-03-28T00:26:43.579Z,69.98
2019-03-28T00:29:16.074Z,70.16
2019-03-28T00:31:48.377Z,69.81
2019-03-28T00:34:21.132Z,69.60
2019-03-28T00:36:53.401Z,69.71
2019-03-28T00:39:25.642Z,70.15
2019-03-28T00:41:57.958Z,70.47
2019-03-28T00:44:30.408Z,70.64
2019-03-28T00:47:02.636Z,70.83
2019-03-28T00:49:34.898Z,70.92
2019-03-28T00:52:07.233Z,71.01
2019-03-28T00:54:39.467Z,71.10
2019-03-28T00:57:11.744Z,71.09
2019-03-28T00:59:44.064Z,71.25
2019-03-28T01:02:16.332Z,71.36
2019-03-28T01:04:48.582Z,71.37
2019-03-28T01:07:20.955Z,71.22
2019-03-28T01:09:53.479Z,70.98
2019-03-28T01:12:25.728Z,70.85
2019-03-28T01:14:58.178Z,70.89
2019-03-28T01:17:30.435Z,70.90
2019-03-28T01:20:02.697Z,70.85
2019-03-28T01:22:35.325Z,70.92
2019-03-28T01:25:07.584Z,71.04
2019-03-28T01:27:39.882Z,71.19
2019-03-28T01:30:12.304Z,71.27
2019-03-28T01:32:44.592Z,71.34
2019-03-28T01:35:16.891Z,71.37
2019-03-28T01:37:48.987Z,71.38
2019-03-28T01:40:21.412Z,71.48
2019-03-28T01:42:53.666Z,71.51
2019-03-28T01:45:25.985Z,71.57
2019-03-28T01:47:58.459Z,71.59
2019-03-28T01:50:30.887Z,71.74
2019-03-28T01:53:03.218Z,72.01
2019-03-28T01:55:35.494Z,72.18
2019-03-28T01:58:07.761Z,72.33
2019-03-28T02:00:40.126Z,72.41
2019-03-28T02:03:12.395Z,72.61
2019-03-28T02:05:44.680Z,72.63
2019-03-28T02:08:18.112Z,72.81
2019-03-28T02:10:50.612Z,72.96
2019-03-28T02:13:25.439Z,72.95
2019-03-28T02:15:58.263Z,72.92
2019-03-28T02:18:30.498Z,72.90
2019-03-28T02:21:02.735Z,72.74
2019-03-28T02:23:35.165Z,72.63
2019-03-28T02:26:07.423Z,72.73
2019-03-28T02:28:39.719Z,72.93
2019-03-28T02:31:12.235Z,72.81
2019-03-28T02:33:44.630Z,72.82
2019-03-28T02:36:16.837Z,72.74
2019-03-28T02:38:49.199Z,72.77
2019-03-28T02:41:21.542Z,72.94
2019-03-28T02:43:53.870Z,73.06
2019-03-28T02:46:26.182Z,73.09
2019-03-28T02:48:58.557Z,72.92
2019-03-28T02:51:30.905Z,72.83
2019-03-28T02:54:03.231Z,72.92
2019-03-28T02:56:35.536Z,72.98
2019-03-28T02:59:07.772Z,72.92
2019-03-28T03:01:40.615Z,72.82
2019-03-28T03:04:13.280Z,72.92
2019-03-28T03:06:45.619Z,72.90
2019-03-28T03:09:17.805Z,72.93
2019-03-28T03:11:50.818Z,73.01
2019-03-28T03:14:23.071Z,73.20
2019-03-28T03:16:55.323Z,73.20
2019-03-28T03:19:27.546Z,73.14
2019-03-28T03:21:59.817Z,72.89
2019-03-28T03:24:32.081Z,72.81
2019-03-28T03:27:04.359Z,72.73
2019-03-28T03:29:36.599Z,72.91
2019-03-28T03:32:08.856Z,72.88
2019-03-28T03:34:41.146Z,72.80
2019-03-28T03:37:13.815Z,72.85
2019-03-28T03:39:46.196Z,72.91
2019-03-28T03:42:19.617Z,73.03
2019-03-28T03:44:51.959Z,73.20
2019-03-28T03:47:24.211Z,73.32
2019-03-28T03:49:56.758Z,73.38
2019-03-28T03:52:29.111Z,73.57
2019-03-28T03:55:01.504Z,73.52
2019-03-28T03:57:33.961Z,73.58
2019-03-28T04:00:06.481Z,73.62
2019-03-28T04:02:38.903Z,73.59
2019-03-28T04:05:11.179Z,73.67
2019-03-28T04:07:43.702Z,73.70
2019-03-28T04:10:16.038Z,73.83
2019-03-28T04:12:48.294Z,73.75
2019-03-28T04:15:20.562Z,73.80
2019-03-28T04:17:52.798Z,73.81
2019-03-28T04:20:25.353Z,73.81
2019-03-28T04:22:57.562Z,73.66
2019-03-28T04:25:29.834Z,73.63
2019-03-28T04:28:02.097Z,73.59
2019-03-28T04:30:34.360Z,73.51
2019-03-28T04:33:06.614Z,73.63
2019-03-28T04:35:38.869Z,73.59
2019-03-28T04:38:11.125Z,73.39
2019-03-28T04:40:43.396Z,73.33
2019-03-28T04:43:15.661Z,73.25
2019-03-28T04:45:47.916Z,73.19
2019-03-28T04:48:20.184Z,73.15
2019-03-28T04:50:52.684Z,73.12
2019-03-28T04:53:25.134Z,73.05
2019-03-28T04:55:57.668Z,73.05
2019-03-28T04:58:43.446Z,73.16
2019-03-28T05:01:04.802Z,73.16
2019-03-28T05:03:37.159Z,73.16
2019-03-28T05:06:09.459Z,73.18
2019-03-28T05:08:44.041Z,72.75
2019-03-28T05:11:16.311Z,72.79
2019-03-28T05:13:48.641Z,72.79
2019-03-28T05:16:20.975Z,72.77
2019-03-28T05:18:53.283Z,72.54
2019-03-28T05:21:25.765Z,72.63
2019-03-28T05:23:58.207Z,72.60
2019-03-28T05:26:30.722Z,72.66
2019-03-28T05:29:03.140Z,72.63
2019-03-28T05:31:35.388Z,72.57
2019-03-28T05:34:08.361Z,72.46
2019-03-28T05:36:40.618Z,72.58
2019-03-28T05:39:12.961Z,72.77
2019-03-28T05:41:45.251Z,72.39
2019-03-28T05:44:17.787Z,72.50
2019-03-28T05:46:50.350Z,72.36
2019-03-28T05:49:22.714Z,72.47
2019-03-28T05:51:55.177Z,72.25
2019-03-28T05:57:26.872Z,72.19
2019-03-28T05:59:59.186Z,72.34
2019-03-28T06:02:31.917Z,72.37
2019-03-28T06:05:04.230Z,72.20
2019-03-28T06:07:36.764Z,72.04
2019-03-28T06:10:10.362Z,72.10
2019-03-28T06:12:42.708Z,71.66
2019-03-28T06:15:15.224Z,71.48
2019-03-28T06:17:47.804Z,70.85
2019-03-28T06:20:20.187Z,71.15
2019-03-28T06:22:52.862Z,70.81
2019-03-28T06:25:25.507Z,70.92
2019-03-28T06:27:59.296Z,71.11
2019-03-28T06:31:19.522Z,71.27
2019-03-28T06:33:15.151Z,71.34
2019-03-28T06:35:44.946Z,71.03
2019-03-28T06:38:17.654Z,70.88
2019-03-28T06:40:51.152Z,71.01
2019-03-28T06:43:23.499Z,71.14
2019-03-28T06:45:58.264Z,71.13
2019-03-28T06:48:30.702Z,71.20
2019-03-28T06:51:03.195Z,71.42
2019-03-28T06:53:35.463Z,71.60
2019-03-28T06:56:07.760Z,71.29
2019-03-28T06:58:40.073Z,70.47
2019-03-28T07:01:13.173Z,70.44
2019-03-28T07:03:47.355Z,70.05
2019-03-28T07:06:20.061Z,69.34
2019-03-28T07:08:52.774Z,69.44
2019-03-28T07:11:25.543Z,69.28
2019-03-28T07:13:58.323Z,69.30
2019-03-28T07:16:30.568Z,68.98
2019-03-28T07:19:02.937Z,69.61
2019-03-28T07:21:35.391Z,69.26
2019-03-28T07:24:07.749Z,68.60
2019-03-28T07:26:40.230Z,68.43
2019-03-28T07:29:12.675Z,67.69
2019-03-28T07:31:44.924Z,67.51
2019-03-28T07:34:17.275Z,67.01
2019-03-28T07:36:51.570Z,67.08
2019-03-28T07:39:23.826Z,66.87
2019-03-28T07:41:56.046Z,66.33
2019-03-28T07:44:28.673Z,65.87
2019-03-28T07:47:01.141Z,66.51
2019-03-28T07:49:37.488Z,66.80
2019-03-28T07:52:09.842Z,65.93
2019-03-28T07:54:42.843Z,65.87
2019-03-28T07:57:15.440Z,64.24
2019-03-28T07:59:47.940Z,64.26
2019-03-28T08:02:20.234Z,64.73
2019-03-28T08:04:53.149Z,64.10
2019-03-28T08:07:25.324Z,64.79
2019-03-28T08:09:58.693Z,63.56
2019-03-28T08:12:31.430Z,61.71
2019-03-28T08:15:03.984Z,62.25
2019-03-28T08:17:36.686Z,61.83
2019-03-28T08:20:09.090Z,62.18
2019-03-28T08:22:41.448Z,63.34
2019-03-28T08:25:14.035Z,63.68
2019-03-28T08:27:46.415Z,64.01
2019-03-28T08:30:19.559Z,64.11
2019-03-28T08:32:52.360Z,63.49
2019-03-28T08:35:24.657Z,64.31
2019-03-28T08:37:57.079Z,64.28
2019-03-28T08:40:29.453Z,63.96
2019-03-28T08:43:01.825Z,63.34
2019-03-28T08:45:34.501Z,64.00
2019-03-28T08:48:07.316Z,63.98
2019-03-28T08:50:40.155Z,63.41
2019-03-28T08:53:12.532Z,63.33
2019-03-28T08:55:44.815Z,62.31
2019-03-28T08:58:17.214Z,62.21
2019-03-28T09:00:52.715Z,63.09
2019-03-28T09:03:23.694Z,63.31
2019-03-28T09:05:56.245Z,64.19
2019-03-28T09:08:29.852Z,65.36
2019-03-28T09:11:03.341Z,66.87
2019-03-28T09:13:35.707Z,67.00
2019-03-28T09:16:07.965Z,67.82
2019-03-28T09:18:40.310Z,69.21
2019-03-28T09:21:12.692Z,69.26
2019-03-28T09:23:45.101Z,69.37
2019-03-28T09:26:17.755Z,68.33
2019-03-28T09:28:49.988Z,66.44
2019-03-28T09:31:22.534Z,67.74
2019-03-28T09:33:54.884Z,66.24
2019-03-28T09:36:27.257Z,65.93
2019-03-28T09:39:03.801Z,65.42
2019-03-28T09:41:36.231Z,65.76
2019-03-28T09:44:08.569Z,66.05
2019-03-28T09:46:40.851Z,66.66
2019-03-28T09:49:13.149Z,65.89
2019-03-28T09:51:45.475Z,66.99
2019-03-28T09:54:17.782Z,66.12
2019-03-28T09:56:50.241Z,64.37
2019-03-28T09:59:22.534Z,64.36
2019-03-28T10:01:54.994Z,62.69
2019-03-28T10:04:27.546Z,59.79
2019-03-28T10:07:00.026Z,58.98
2019-03-28T10:09:32.373Z,56.72
2019-03-28T10:12:04.698Z,56.18
2019-03-28T10:14:37.181Z,56.27
2019-03-28T10:17:09.566Z,56.54
2019-03-28T10:19:41.927Z,58.57
2019-03-28T10:22:14.353Z,60.77
2019-03-28T10:24:46.658Z,61.68
2019-03-28T10:27:19.461Z,62.99
2019-03-28T10:29:51.970Z,62.20
2019-03-28T10:32:24.251Z,62.41
2019-03-28T10:34:56.622Z,61.51
2019-03-28T10:37:29.190Z,60.48
2019-03-28T10:40:01.481Z,60.27
2019-03-28T10:42:33.977Z,60.04
2019-03-28T10:45:06.751Z,59.74
2019-03-28T10:47:40.661Z,59.10
2019-03-28T10:50:12.985Z,59.05
2019-03-28T10:52:45.303Z,60.07
2019-03-28T10:55:17.677Z,60.01
2019-03-28T10:57:50.216Z,58.70
2019-03-28T11:00:24.412Z,58.79
2019-03-28T11:02:56.600Z,57.82
2019-03-28T11:05:28.996Z,58.36
2019-03-28T11:08:01.322Z,59.12
2019-03-28T11:10:33.690Z,59.23
2019-03-28T11:13:09.294Z,57.26
2019-03-28T11:15:40.236Z,57.80
2019-03-28T11:18:13.223Z,58.12
2019-03-28T11:20:47.629Z,58.85
2019-03-28T11:23:19.855Z,60.41
2019-03-28T11:25:52.103Z,60.30
2019-03-28T11:28:24.488Z,60.26
2019-03-28T11:30:56.784Z,61.02
2019-03-28T11:33:29.068Z,62.21
2019-03-28T11:36:01.314Z,62.75
2019-03-28T11:38:33.651Z,63.25
2019-03-28T11:41:06.044Z,63.65
2019-03-28T11:43:38.417Z,63.12
2019-03-28T11:46:10.698Z,63.95
2019-03-28T11:48:42.955Z,64.92
2019-03-28T11:51:15.322Z,64.51
2019-03-28T11:53:47.823Z,64.65
2019-03-28T11:56:20.253Z,64.72
2019-03-28T11:58:52.567Z,64.69
2019-03-28T12:01:24.834Z,64.32
2019-03-28T12:03:57.145Z,64.82
2019-03-28T12:06:29.523Z,65.18
2019-03-28T12:09:01.844Z,64.20
2019-03-28T12:11:35.744Z,63.79
2019-03-28T12:14:08.065Z,64.07
2019-03-28T12:16:40.470Z,63.29
2019-03-28T12:19:12.964Z,62.01
2019-03-28T12:21:47.454Z,62.24
2019-03-28T12:24:19.779Z,62.56
2019-03-28T12:26:52.270Z,62.07
2019-03-28T12:29:24.563Z,61.97
2019-03-28T12:31:56.874Z,61.89
2019-03-28T12:34:30.119Z,61.86
2019-03-28T12:37:02.431Z,61.62
2019-03-28T12:39:34.696Z,61.15
2019-03-28T12:44:39.930Z,60.84
2019-03-28T12:47:12.157Z,60.46
2019-03-28T12:49:44.531Z,59.68
2019-03-28T12:52:16.872Z,59.81
2019-03-28T12:54:49.233Z,58.88
2019-03-28T12:57:21.622Z,58.68
2019-03-28T12:59:54.900Z,57.33
2019-03-28T13:02:31.568Z,56.52
2019-03-28T13:05:01.417Z,57.22
2019-03-28T13:07:33.973Z,56.56
2019-03-28T13:10:06.345Z,56.43
2019-03-28T13:12:38.643Z,57.19
2019-03-28T13:15:11.081Z,57.23
2019-03-28T13:17:43.562Z,56.23
2019-03-28T13:20:15.922Z,55.35
2019-03-28T13:22:48.270Z,54.45
2019-03-28T13:25:20.826Z,54.43
2019-03-28T13:27:53.277Z,54.62
2019-03-28T13:30:25.721Z,55.84
2019-03-28T13:32:58.160Z,55.39
2019-03-28T13:35:35.076Z,55.44
2019-03-28T13:38:06.823Z,55.25
2019-03-28T13:40:40.226Z,55.82
2019-03-28T13:43:14.865Z,54.96
2019-03-28T13:45:47.087Z,55.20
2019-03-28T13:48:19.422Z,54.51
2019-03-28T13:50:54.607Z,56.17
2019-03-28T13:53:38.372Z,55.30
2019-03-28T13:55:59.424Z,54.30
2019-03-28T13:58:32.915Z,55.08
2019-03-28T14:01:05.248Z,54.18
2019-03-28T14:03:37.644Z,55.00
2019-03-28T14:06:10.417Z,54.36
2019-03-28T14:08:42.703Z,54.75
2019-03-28T14:11:15.147Z,54.60
2019-03-28T14:13:47.613Z,54.57
2019-03-28T14:16:20.193Z,54.36
2019-03-28T14:18:52.443Z,56.12
2019-03-28T14:21:25.058Z,57.33
2019-03-28T14:23:57.382Z,57.20
2019-03-28T14:26:29.656Z,57.85
2019-03-28T14:29:01.902Z,57.86
2019-03-28T14:31:36.285Z,57.89
2019-03-28T14:34:08.632Z,58.17
2019-03-28T14:36:40.867Z,58.98
2019-03-28T14:39:13.266Z,58.50
2019-03-28T14:41:46.542Z,58.68
2019-03-28T14:44:20.955Z,58.23
2019-03-28T14:46:53.323Z,58.23
2019-03-28T14:49:25.561Z,58.09
2019-03-28T14:51:57.813Z,57.53
2019-03-28T14:54:30.027Z,57.45
2019-03-28T14:57:02.295Z,57.40
2019-03-28T14:59:34.907Z,56.62
2019-03-28T15:02:07.230Z,56.69
2019-03-28T15:04:39.700Z,57.64
2019-03-28T15:07:12.088Z,57.46
2019-03-28T15:09:44.872Z,58.16
2019-03-28T15:12:17.153Z,57.15
2019-03-28T15:14:49.529Z,57.46
2019-03-28T15:17:21.873Z,56.50
2019-03-28T15:19:54.205Z,56.09
2019-03-28T15:22:26.801Z,56.26
2019-03-28T15:24:59.101Z,56.30
2019-03-28T15:27:31.549Z,56.38
2019-03-28T15:30:05.068Z,56.29
2019-03-28T15:32:37.492Z,56.39
2019-03-28T15:35:09.537Z,56.95
2019-03-28T15:37:41.954Z,57.48
2019-03-28T15:40:14.257Z,58.38
2019-03-28T15:42:46.691Z,56.99
2019-03-28T15:45:19.361Z,56.24
2019-03-28T15:47:52.227Z,56.72
2019-03-28T15:50:25.046Z,56.80
2019-03-28T15:52:57.570Z,57.09
2019-03-28T15:55:30.056Z,57.20
2019-03-28T15:58:02.491Z,56.88
2019-03-28T16:00:34.948Z,57.23
2019-03-28T16:03:08.789Z,56.66
2019-03-28T16:05:41.103Z,57.53
2019-03-28T16:08:13.821Z,57.42
2019-03-28T16:10:46.083Z,56.82
2019-03-28T16:13:18.766Z,57.26
2019-03-28T16:15:51.256Z,57.35
2019-03-28T16:18:23.751Z,57.31
2019-03-28T16:20:56.250Z,56.74
2019-03-28T16:23:29.475Z,57.28
2019-03-28T16:26:02.219Z,57.55
2019-03-28T16:28:35.347Z,57.67
2019-03-28T16:31:14.683Z,57.32
2019-03-28T16:33:47.916Z,57.69
2019-03-28T16:36:20.275Z,57.96
2019-03-28T16:38:52.552Z,57.71
2019-03-28T16:41:24.787Z,57.54
2019-03-28T16:43:57.668Z,58.00
2019-03-28T16:46:29.812Z,57.98
2019-03-28T16:49:02.138Z,58.56
2019-03-28T16:51:35.552Z,58.50
2019-03-28T16:54:07.802Z,58.53
2019-03-28T16:56:40.350Z,58.33
2019-03-28T16:59:14.881Z,58.46
2019-03-28T17:01:48.022Z,58.48
2019-03-28T17:04:21.340Z,58.12
2019-03-28T17:06:54.365Z,58.77
2019-03-28T17:09:26.680Z,59.54
2019-03-28T17:12:00.133Z,58.67
2019-03-28T17:14:32.595Z,59.24
2019-03-28T17:17:05.027Z,59.73
2019-03-28T17:19:37.541Z,59.27
2019-03-28T17:22:09.913Z,58.96
2019-03-28T17:24:43.256Z,59.61
2019-03-28T17:27:15.925Z,59.26
2019-03-28T17:29:48.322Z,59.50
2019-03-28T17:32:20.669Z,60.07
2019-03-28T17:34:53.008Z,59.85
2019-03-28T17:37:25.899Z,60.35
2019-03-28T17:39:58.398Z,60.40
2019-03-28T17:42:30.886Z,59.99
2019-03-28T17:45:03.534Z,60.01
2019-03-28T17:47:37.171Z,60.16
2019-03-28T17:50:09.764Z,60.41
2019-03-28T17:52:49.191Z,60.87
2019-03-28T17:55:21.975Z,61.59
2019-03-28T17:57:54.153Z,62.55
2019-03-28T18:00:28.051Z,63.03
2019-03-28T18:03:09.206Z,63.66
2019-03-28T18:05:35.398Z,64.19
2019-03-28T18:08:08.383Z,64.43
2019-03-28T18:10:40.930Z,64.70
2019-03-28T18:13:14.535Z,65.32
2019-03-28T18:15:47.769Z,65.76
2019-03-28T18:18:20.700Z,66.17
2019-03-28T18:20:53.337Z,66.66
2019-03-28T18:23:26.006Z,66.67
2019-03-28T18:25:59.627Z,67.09
2019-03-28T18:28:32.694Z,67.46
2019-03-28T18:31:05.098Z,67.71
2019-03-28T18:33:37.601Z,67.78
2019-03-28T18:36:10.065Z,67.66
2019-03-28T18:38:42.560Z,68.29
2019-03-28T18:41:15.301Z,68.71
2019-03-28T18:43:47.856Z,68.68
2019-03-28T18:46:20.543Z,69.50
2019-03-28T18:48:53.472Z,69.54
2019-03-28T18:51:26.099Z,69.76
2019-03-28T18:53:58.691Z,69.63
2019-03-28T18:56:31.348Z,69.40
2019-03-28T18:59:07.262Z,69.67
2019-03-28T19:01:40.081Z,69.47
2019-03-28T19:04:12.566Z,70.09
2019-03-28T19:06:44.977Z,69.98
2019-03-28T19:09:17.313Z,70.60
2019-03-28T19:11:50.057Z,70.65
2019-03-28T19:14:22.418Z,70.64
2019-03-28T19:16:55.334Z,70.67
2019-03-28T19:19:38.812Z,70.72
2019-03-28T19:22:01.936Z,70.16
2019-03-28T19:24:34.071Z,70.43
2019-03-28T19:27:06.388Z,69.78
2019-03-28T19:29:38.627Z,69.15
2019-03-28T19:32:10.945Z,68.62
2019-03-28T19:34:43.323Z,68.64
2019-03-28T19:37:16.693Z,68.44
2019-03-28T19:39:48.771Z,68.05
2019-03-28T19:42:22.581Z,67.98
2019-03-28T19:44:55.005Z,67.92
2019-03-28T19:47:28.729Z,67.43
2019-03-28T19:50:03.376Z,67.06
2019-03-28T19:52:35.724Z,67.40
2019-03-28T19:55:09.363Z,67.12
2019-03-28T19:57:43.257Z,67.24
2019-03-28T20:00:15.600Z,67.57
2019-03-28T20:02:47.930Z,68.07
2019-03-28T20:05:20.215Z,68.00
2019-03-28T20:07:54.361Z,68.15
2019-03-28T20:10:26.582Z,68.85
2019-03-28T20:12:59.993Z,68.81
2019-03-28T20:15:32.299Z,69.15
2019-03-28T20:18:04.527Z,69.25
2019-03-28T20:20:36.804Z,69.32
2019-03-28T20:23:09.157Z,69.77
2019-03-28T20:25:42.950Z,70.28
2019-03-28T20:28:16.263Z,70.89
2019-03-28T20:30:48.814Z,71.28
2019-03-28T20:33:21.222Z,71.63
2019-03-28T20:36:06.316Z,71.83
2019-03-28T20:38:27.747Z,72.15
2019-03-28T20:41:00.090Z,72.58
2019-03-28T20:43:32.702Z,73.16
2019-03-28T20:46:05.386Z,73.30
2019-03-28T20:48:38.942Z,73.64
2019-03-28T20:51:11.507Z,73.56
2019-03-28T20:53:43.842Z,73.58
2019-03-28T20:56:16.235Z,74.10
2019-03-28T20:58:48.577Z,74.37
2019-03-28T21:01:20.844Z,74.61
2019-03-28T21:03:53.128Z,74.41
2019-03-28T21:06:26.456Z,74.85
2019-03-28T21:09:00.251Z,74.92
2019-03-28T21:11:32.942Z,75.18
2019-03-28T21:14:05.462Z,75.23
2019-03-28T21:16:38.168Z,75.14
2019-03-28T21:19:10.897Z,75.04
2019-03-28T21:21:44.583Z,75.58
2019-03-28T21:24:18.227Z,75.48
2019-03-28T21:26:50.870Z,75.74
2019-03-28T21:29:23.189Z,75.79
2019-03-28T21:31:57.893Z,75.64
2019-03-28T21:34:30.447Z,75.70
2019-03-28T21:37:06.245Z,76.12
2019-03-28T21:39:39.887Z,76.39
2019-03-28T21:42:12.129Z,76.43
2019-03-28T21:44:44.839Z,76.44
2019-03-28T21:47:17.307Z,76.40
2019-03-28T21:49:49.675Z,76.56
2019-03-28T21:52:22.384Z,76.60
2019-03-28T21:54:54.970Z,76.46
2019-03-28T21:57:27.400Z,76.55
2019-03-28T21:59:59.879Z,76.61
2019-03-28T22:02:32.226Z,76.69
2019-03-28T22:05:04.637Z,76.73
2019-03-28T22:07:36.988Z,76.82
2019-03-28T22:10:09.538Z,76.90
2019-03-28T22:12:42.091Z,77.03
2019-03-28T22:15:14.377Z,77.13
2019-03-28T22:17:46.687Z,76.86
2019-03-28T22:20:19.180Z,76.91
2019-03-28T22:22:51.531Z,76.97
2019-03-28T22:25:23.839Z,76.91
2019-03-28T22:27:56.206Z,77.05
2019-03-28T22:30:28.469Z,77.22
2019-03-28T22:33:01.155Z,77.36
2019-03-28T22:35:33.512Z,77.17
2019-03-28T22:38:06.295Z,77.20
2019-03-28T22:40:38.792Z,77.35
2019-03-28T22:43:11.572Z,77.63
2019-03-28T22:45:45.036Z,77.37
2019-03-28T22:48:17.859Z,77.40
2019-03-28T22:50:50.380Z,77.11
2019-03-28T22:53:22.998Z,77.14
2019-03-28T22:55:55.261Z,77.59
2019-03-28T22:58:27.539Z,77.73
2019-03-28T23:00:59.888Z,77.88
2019-03-28T23:03:32.622Z,77.83
2019-03-28T23:06:05.175Z,77.92
2019-03-28T23:08:37.534Z,77.81
2019-03-28T23:11:09.885Z,77.77
2019-03-28T23:13:45.178Z,77.79
2019-03-28T23:16:17.567Z,77.70
2019-03-28T23:18:49.873Z,77.72
2019-03-28T23:21:22.163Z,77.54
2019-03-28T23:23:54.525Z,77.62
2019-03-28T23:26:26.888Z,77.71
2019-03-28T23:28:59.334Z,77.58
2019-03-28T23:31:31.728Z,77.75
2019-03-28T23:34:04.221Z,77.65
2019-03-28T23:36:37.005Z,77.90
2019-03-28T23:39:09.374Z,77.96
2019-03-28T23:41:41.891Z,78.06
2019-03-28T23:44:14.198Z,78.14
2019-03-28T23:46:46.839Z,77.86
2019-03-28T23:49:19.486Z,77.79
2019-03-28T23:51:51.820Z,78.11
2019-03-28T23:54:24.175Z,78.23
2019-03-28T23:56:57.369Z,78.03
2019-03-28T23:59:30.142Z,78.12
